Time;durP1;ratioP1;P1;durP2;ratioP2;P2;SDS_P1;SDS_P2;PMS_P1;PMS_P2;Temp;Humidity;BMP_temperature;BMP_pressure;BME280_temperature;BME280_humidity;BME280_pressure;Samples;Min_cycle;Max_cycle;Signal;HPM_P1;HPM_P2
2023/12/28 00:01:04;;;;;;;54.58;17.95;;;;;;;;;;6240410;28;20052;-76
2023/12/28 00:04:05;;;;;;;41.95;15.90;;;;;;;;;;6245196;28;20139;-77
2023/12/28 00:07:07;;;;;;;16.65;6.57;;;;;;;;;;6245614;28;20060;-77
2023/12/28 00:10:09;;;;;;;14.38;5.80;;;;;;;;;;6244548;28;20052;-76
2023/12/28 00:13:11;;;;;;;11.25;3.65;;;;;;;;;;6248902;28;20044;-76
2023/12/28 00:16:13;;;;;;;8.93;4.38;;;;;;;;;;6241999;28;20060;-77
2023/12/28 00:19:14;;;;;;;8.70;3.85;;;;;;;;;;6244649;28;20049;-76
2023/12/28 00:22:16;;;;;;;5.82;3.20;;;;;;;;;;6245073;28;20046;-77
2023/12/28 00:25:18;;;;;;;6.07;3.40;;;;;;;;;;6244859;28;20076;-77
2023/12/28 00:28:19;;;;;;;7.55;3.80;;;;;;;;;;6225791;28;20180;-76
2023/12/28 00:31:22;;;;;;;5.65;3.50;;;;;;;;;;6241942;28;20064;-76
2023/12/28 00:34:24;;;;;;;5.00;3.22;;;;;;;;;;6247139;28;20477;-77
2023/12/28 00:37:26;;;;;;;7.18;2.97;;;;;;;;;;6249442;28;20438;-76
2023/12/28 00:40:27;;;;;;;5.05;3.10;;;;;;;;;;6234239;28;20152;-77
2023/12/28 00:43:30;;;;;;;6.97;3.65;;;;;;;;;;6241354;28;20037;-77
2023/12/28 00:46:33;;;;;;;4.60;2.30;;;;;;;;;;6229500;28;20171;-77
2023/12/28 00:49:35;;;;;;;7.50;3.58;;;;;;;;;;6250005;28;20145;-76
2023/12/28 00:52:37;;;;;;;4.75;2.50;;;;;;;;;;6247635;28;20660;-76
2023/12/28 00:55:38;;;;;;;4.78;2.70;;;;;;;;;;6250962;28;20045;-76
2023/12/28 00:58:40;;;;;;;4.65;2.70;;;;;;;;;;6220299;28;20415;-76
2023/12/28 01:01:42;;;;;;;3.58;2.75;;;;;;;;;;6245437;28;20136;-77
2023/12/28 01:04:44;;;;;;;8.73;4.68;;;;;;;;;;6250158;28;20165;-77
2023/12/28 01:07:45;;;;;;;7.65;2.63;;;;;;;;;;6248305;28;20148;-76
2023/12/28 01:10:47;;;;;;;5.78;3.38;;;;;;;;;;6249033;28;20526;-76
2023/12/28 01:13:49;;;;;;;5.32;3.15;;;;;;;;;;6242042;28;20049;-77
2023/12/28 01:16:51;;;;;;;8.45;3.78;;;;;;;;;;6240018;28;20047;-76
2023/12/28 01:19:53;;;;;;;9.65;3.55;;;;;;;;;;6232947;28;20048;-77
2023/12/28 01:22:54;;;;;;;5.65;2.75;;;;;;;;;;6230028;28;20045;-77
2023/12/28 01:25:56;;;;;;;6.35;2.85;;;;;;;;;;6246852;28;20526;-77
2023/12/28 01:28:58;;;;;;;6.47;2.42;;;;;;;;;;6232357;28;20065;-77
2023/12/28 01:32:00;;;;;;;4.95;2.83;;;;;;;;;;6246757;28;20087;-77
2023/12/28 01:35:02;;;;;;;5.18;2.80;;;;;;;;;;6248413;28;20162;-77
2023/12/28 01:38:03;;;;;;;5.70;3.08;;;;;;;;;;6243832;28;20515;-77
2023/12/28 01:41:05;;;;;;;6.75;2.28;;;;;;;;;;6246498;28;20608;-76
2023/12/28 01:44:07;;;;;;;4.35;2.00;;;;;;;;;;6248494;28;20518;-77
2023/12/28 01:47:10;;;;;;;3.38;1.70;;;;;;;;;;6249078;28;20053;-77
2023/12/28 01:50:11;;;;;;;2.78;1.73;;;;;;;;;;6230545;28;20187;-76
2023/12/28 01:53:14;;;;;;;3.30;1.83;;;;;;;;;;6248269;28;20045;-76
2023/12/28 01:56:17;;;;;;;2.13;1.67;;;;;;;;;;6231189;28;20124;-76
2023/12/28 01:59:19;;;;;;;2.83;1.90;;;;;;;;;;6229462;28;20096;-76
2023/12/28 02:02:23;;;;;;;3.83;2.10;;;;;;;;;;6229418;28;20548;-77
2023/12/28 02:05:24;;;;;;;2.42;1.90;;;;;;;;;;6249457;28;20076;-77
2023/12/28 02:08:26;;;;;;;3.60;2.03;;;;;;;;;;6251219;28;20060;-77
2023/12/28 02:11:28;;;;;;;2.75;1.77;;;;;;;;;;6246444;28;20064;-77
2023/12/28 02:14:30;;;;;;;4.93;2.10;;;;;;;;;;6250059;28;20518;-77
2023/12/28 02:17:50;;;;;;;5.10;2.08;;;;;;;;;;6244639;28;20179;-77
2023/12/28 02:20:54;;;;;;;2.58;1.65;;;;;;;;;;6258466;28;20450;-77
2023/12/28 02:23:55;;;;;;;3.28;2.05;;;;;;;;;;6249380;28;20175;-77
2023/12/28 02:26:57;;;;;;;5.40;2.53;;;;;;;;;;6246592;28;20064;-76
2023/12/28 02:29:59;;;;;;;3.45;1.98;;;;;;;;;;6245794;28;20056;-77
2023/12/28 02:33:30;;;;;;;4.90;2.20;;;;;;;;;;6221207;28;20117;-76
2023/12/28 02:36:35;;;;;;;2.10;1.90;;;;;;;;;;6246622;28;20448;-76
2023/12/28 02:39:39;;;;;;;3.13;1.77;;;;;;;;;;6241514;28;20238;-77
2023/12/28 02:42:40;;;;;;;2.75;1.85;;;;;;;;;;6245613;28;20041;-77
2023/12/28 02:45:42;;;;;;;4.38;1.90;;;;;;;;;;6245648;28;20053;-76
2023/12/28 02:48:44;;;;;;;3.63;1.77;;;;;;;;;;6243964;28;20043;-76
2023/12/28 02:51:47;;;;;;;3.75;2.10;;;;;;;;;;6252631;28;20041;-77
2023/12/28 02:54:49;;;;;;;3.10;1.95;;;;;;;;;;6246957;28;20518;-77
2023/12/28 02:57:54;;;;;;;3.25;2.15;;;;;;;;;;6245886;28;20174;-77
2023/12/28 03:00:56;;;;;;;3.20;2.00;;;;;;;;;;6226920;28;20506;-77
2023/12/28 03:03:58;;;;;;;2.72;2.08;;;;;;;;;;6251110;28;20048;-77
2023/12/28 03:07:00;;;;;;;4.85;2.13;;;;;;;;;;6250222;28;20633;-77
2023/12/28 03:10:02;;;;;;;5.88;2.03;;;;;;;;;;6249492;28;20051;-77
2023/12/28 03:13:04;;;;;;;2.90;1.95;;;;;;;;;;6243763;28;20049;-77
2023/12/28 03:16:06;;;;;;;5.13;2.10;;;;;;;;;;6244470;28;20072;-77
2023/12/28 03:19:09;;;;;;;3.03;1.95;;;;;;;;;;6246623;28;20060;-77
2023/12/28 03:22:11;;;;;;;4.30;2.85;;;;;;;;;;6246354;28;20434;-76
2023/12/28 03:25:14;;;;;;;3.90;2.33;;;;;;;;;;6229540;28;20214;-77
2023/12/28 03:28:16;;;;;;;3.15;1.90;;;;;;;;;;6254883;28;20051;-77
2023/12/28 03:31:18;;;;;;;4.45;2.63;;;;;;;;;;6229547;28;20056;-77
2023/12/28 03:34:22;;;;;;;4.82;2.47;;;;;;;;;;6231578;28;20080;-77
2023/12/28 03:37:25;;;;;;;3.63;2.30;;;;;;;;;;6243620;28;20608;-76
2023/12/28 03:40:26;;;;;;;3.90;2.00;;;;;;;;;;6246749;28;20042;-77
2023/12/28 03:43:28;;;;;;;2.10;1.77;;;;;;;;;;6249284;28;20068;-77
2023/12/28 03:46:30;;;;;;;2.50;1.95;;;;;;;;;;6245764;28;20518;-76
2023/12/28 03:49:32;;;;;;;3.75;2.10;;;;;;;;;;6229998;28;20048;-77
2023/12/28 03:52:33;;;;;;;2.28;1.67;;;;;;;;;;6230576;28;20495;-77
2023/12/28 03:55:35;;;;;;;2.75;1.80;;;;;;;;;;6244812;28;20049;-77
2023/12/28 03:58:37;;;;;;;2.50;1.88;;;;;;;;;;6241789;28;20053;-77
2023/12/28 04:01:39;;;;;;;2.65;1.98;;;;;;;;;;6247403;28;20048;-77
2023/12/28 04:04:41;;;;;;;4.55;1.73;;;;;;;;;;6248669;28;20043;-77
2023/12/28 04:07:43;;;;;;;4.53;2.40;;;;;;;;;;6242201;28;20045;-77
2023/12/28 04:10:45;;;;;;;2.83;1.85;;;;;;;;;;6245687;28;20765;-77
2023/12/28 04:13:46;;;;;;;3.97;1.90;;;;;;;;;;6241673;28;20130;-77
2023/12/28 04:16:48;;;;;;;2.53;1.70;;;;;;;;;;6245078;28;20041;-76
2023/12/28 04:19:50;;;;;;;2.33;1.75;;;;;;;;;;6244587;28;20068;-77
2023/12/28 04:22:52;;;;;;;3.47;1.90;;;;;;;;;;6250444;28;20044;-76
2023/12/28 04:25:53;;;;;;;1.98;1.75;;;;;;;;;;6230252;28;20128;-77
2023/12/28 04:28:55;;;;;;;1.70;1.50;;;;;;;;;;6234157;28;20136;-77
2023/12/28 04:31:57;;;;;;;2.67;1.70;;;;;;;;;;6247619;28;20067;-77
2023/12/28 04:34:59;;;;;;;4.10;1.80;;;;;;;;;;6245689;28;20049;-76
2023/12/28 04:38:01;;;;;;;2.92;2.00;;;;;;;;;;6245480;28;20044;-77
2023/12/28 04:41:03;;;;;;;1.83;1.65;;;;;;;;;;6233589;28;20080;-76
2023/12/28 04:44:05;;;;;;;1.90;1.65;;;;;;;;;;6266929;28;20041;-76
2023/12/28 04:47:07;;;;;;;2.67;1.83;;;;;;;;;;6244724;28;20422;-76
2023/12/28 04:50:10;;;;;;;4.45;1.67;;;;;;;;;;6244515;28;21011;-77
2023/12/28 04:53:12;;;;;;;3.45;2.03;;;;;;;;;;6245745;28;20052;-77
2023/12/28 04:56:18;;;;;;;3.13;2.00;;;;;;;;;;6251159;28;20415;-76
2023/12/28 04:59:20;;;;;;;3.13;1.85;;;;;;;;;;6231204;28;20084;-77
2023/12/28 05:02:22;;;;;;;2.67;1.60;;;;;;;;;;6245223;28;20045;-77
2023/12/28 05:05:24;;;;;;;3.53;1.77;;;;;;;;;;6232926;28;20052;-77
2023/12/28 05:08:25;;;;;;;3.17;1.75;;;;;;;;;;6250581;28;20206;-77
2023/12/28 05:11:27;;;;;;;3.45;1.88;;;;;;;;;;6246757;28;20064;-77
2023/12/28 05:14:29;;;;;;;3.95;1.80;;;;;;;;;;6245321;28;20045;-77
2023/12/28 05:17:30;;;;;;;2.15;1.70;;;;;;;;;;6249279;28;20037;-77
2023/12/28 05:20:32;;;;;;;3.38;1.70;;;;;;;;;;6249597;28;20065;-77
2023/12/28 05:23:34;;;;;;;3.08;1.80;;;;;;;;;;6251389;28;20214;-76
2023/12/28 05:26:35;;;;;;;2.45;1.70;;;;;;;;;;6246453;28;20052;-77
2023/12/28 05:29:37;;;;;;;4.25;1.90;;;;;;;;;;6248979;28;20136;-77
2023/12/28 05:32:39;;;;;;;2.58;1.58;;;;;;;;;;6248709;28;20136;-77
2023/12/28 05:35:41;;;;;;;4.80;1.90;;;;;;;;;;6245376;28;20122;-76
2023/12/28 05:38:42;;;;;;;2.22;1.80;;;;;;;;;;6226975;28;20128;-77
2023/12/28 05:41:47;;;;;;;3.67;2.05;;;;;;;;;;6246418;28;20047;-76
2023/12/28 05:44:49;;;;;;;2.65;1.75;;;;;;;;;;6246915;28;20044;-77
2023/12/28 05:47:50;;;;;;;2.47;1.67;;;;;;;;;;6245664;28;20124;-77
2023/12/28 05:50:52;;;;;;;2.45;1.77;;;;;;;;;;6248371;28;20049;-77
2023/12/28 05:53:54;;;;;;;2.78;1.92;;;;;;;;;;6248077;28;20442;-77
2023/12/28 05:56:55;;;;;;;2.50;1.80;;;;;;;;;;6248153;28;20055;-76
2023/12/28 05:59:57;;;;;;;4.60;1.60;;;;;;;;;;6247932;28;20053;-77
2023/12/28 06:03:01;;;;;;;2.45;1.70;;;;;;;;;;6247122;28;20052;-77
2023/12/28 06:06:03;;;;;;;3.92;2.08;;;;;;;;;;6247368;28;20044;-77
2023/12/28 06:09:04;;;;;;;3.08;1.85;;;;;;;;;;6246235;28;20048;-77
2023/12/28 06:12:06;;;;;;;3.83;2.05;;;;;;;;;;6248213;28;20045;-76
2023/12/28 06:15:09;;;;;;;5.30;1.70;;;;;;;;;;6247263;28;20049;-76
2023/12/28 06:18:10;;;;;;;4.73;2.20;;;;;;;;;;6230771;28;20052;-77
2023/12/28 06:21:12;;;;;;;3.60;1.55;;;;;;;;;;6249971;28;20403;-77
2023/12/28 06:24:15;;;;;;;2.22;1.63;;;;;;;;;;6245530;28;20048;-76
2023/12/28 06:27:16;;;;;;;2.40;1.63;;;;;;;;;;6247821;28;20145;-77
2023/12/28 06:30:18;;;;;;;4.47;1.92;;;;;;;;;;6229846;23;20412;-77
2023/12/28 06:33:20;;;;;;;3.20;2.15;;;;;;;;;;6195491;28;20049;-78
2023/12/28 06:36:22;;;;;;;2.75;1.60;;;;;;;;;;6204215;28;20049;-75
2023/12/28 06:39:23;;;;;;;5.00;2.45;;;;;;;;;;6220555;28;20038;-76
2023/12/28 06:42:25;;;;;;;3.53;1.90;;;;;;;;;;6239159;28;20041;-74
2023/12/28 06:45:27;;;;;;;3.95;2.05;;;;;;;;;;6215184;28;20050;-76
2023/12/28 06:48:30;;;;;;;2.95;1.80;;;;;;;;;;6209089;28;20046;-77
2023/12/28 06:51:33;;;;;;;3.45;1.90;;;;;;;;;;6206221;28;20124;-77
2023/12/28 06:54:34;;;;;;;4.15;1.80;;;;;;;;;;6201526;28;20072;-76
2023/12/28 06:57:36;;;;;;;5.25;2.08;;;;;;;;;;6205215;28;20144;-78
2023/12/28 07:00:38;;;;;;;4.65;2.08;;;;;;;;;;6202009;28;20968;-77
2023/12/28 07:03:40;;;;;;;3.47;1.70;;;;;;;;;;6187999;28;20133;-77
2023/12/28 07:06:42;;;;;;;3.97;1.92;;;;;;;;;;6210060;28;20076;-77
2023/12/28 07:09:44;;;;;;;4.50;2.10;;;;;;;;;;6197618;28;20057;-76
2023/12/28 07:12:47;;;;;;;6.75;2.03;;;;;;;;;;6206258;28;20077;-78
2023/12/28 07:15:50;;;;;;;2.72;1.98;;;;;;;;;;6206193;28;20045;-78
2023/12/28 07:18:58;;;;;;;2.17;1.55;;;;;;;;;;6214820;28;20511;-78
2023/12/28 07:22:00;;;;;;;2.70;1.65;;;;;;;;;;6201740;28;20739;-78
2023/12/28 07:25:06;;;;;;;2.73;1.70;;;;;;;;;;6200908;28;20038;-77
2023/12/28 07:28:08;;;;;;;1.70;1.48;;;;;;;;;;6200468;28;20049;-78
2023/12/28 07:31:10;;;;;;;2.50;1.77;;;;;;;;;;6201786;28;20419;-77
2023/12/28 07:34:12;;;;;;;3.27;2.00;;;;;;;;;;6215516;28;20072;-78
2023/12/28 07:37:14;;;;;;;2.40;1.70;;;;;;;;;;6204623;28;20053;-78
2023/12/28 07:40:16;;;;;;;5.18;2.00;;;;;;;;;;6186646;28;20038;-78
2023/12/28 07:43:18;;;;;;;3.33;1.70;;;;;;;;;;6204756;28;20038;-78
2023/12/28 07:46:21;;;;;;;4.75;2.22;;;;;;;;;;6184032;28;20068;-78
2023/12/28 07:49:23;;;;;;;2.65;1.75;;;;;;;;;;6207939;28;20129;-76
2023/12/28 07:52:25;;;;;;;2.85;2.00;;;;;;;;;;6203429;28;20060;-74
2023/12/28 07:55:27;;;;;;;4.03;1.60;;;;;;;;;;6181817;28;20076;-78
2023/12/28 07:58:29;;;;;;;2.55;1.88;;;;;;;;;;6198249;28;20152;-78
2023/12/28 08:01:32;;;;;;;3.08;1.88;;;;;;;;;;6201911;28;20038;-77
2023/12/28 08:04:34;;;;;;;4.40;2.05;;;;;;;;;;6220431;28;20132;-76
2023/12/28 08:07:37;;;;;;;2.87;1.73;;;;;;;;;;6208579;28;20161;-78
2023/12/28 08:10:39;;;;;;;3.97;1.80;;;;;;;;;;6179945;28;20045;-76
2023/12/28 08:13:40;;;;;;;2.97;1.70;;;;;;;;;;6204949;28;20411;-79
2023/12/28 08:16:42;;;;;;;3.75;1.70;;;;;;;;;;6189135;28;20404;-79
2023/12/28 08:19:44;;;;;;;3.45;2.33;;;;;;;;;;6220343;28;20042;-77
2023/12/28 08:22:46;;;;;;;4.47;1.88;;;;;;;;;;6206343;28;20097;-75
2023/12/28 08:25:53;;;;;;;2.78;1.75;;;;;;;;;;6213620;28;20106;-74
2023/12/28 08:28:55;;;;;;;4.95;1.77;;;;;;;;;;6209175;28;20060;-78
2023/12/28 08:31:57;;;;;;;2.80;1.80;;;;;;;;;;6220223;28;20061;-78
2023/12/28 08:34:59;;;;;;;4.70;2.10;;;;;;;;;;6204221;28;20066;-76
2023/12/28 08:38:00;;;;;;;2.75;1.88;;;;;;;;;;6218834;28;20685;-78
2023/12/28 08:41:08;;;;;;;2.15;1.60;;;;;;;;;;6206983;28;20511;-80
2023/12/28 08:44:10;;;;;;;4.28;2.10;;;;;;;;;;6203882;28;20292;-80
2023/12/28 08:47:11;;;;;;;5.50;1.77;;;;;;;;;;6203197;28;20052;-78
2023/12/28 08:50:14;;;;;;;4.43;1.80;;;;;;;;;;6202588;28;20052;-78
2023/12/28 08:53:16;;;;;;;3.57;1.83;;;;;;;;;;6210918;28;20053;-78
2023/12/28 08:56:20;;;;;;;2.97;2.03;;;;;;;;;;6223522;28;20034;-77
2023/12/28 08:59:22;;;;;;;3.25;1.90;;;;;;;;;;6233302;28;20054;-77
2023/12/28 09:02:23;;;;;;;2.63;1.60;;;;;;;;;;6220483;28;20127;-77
2023/12/28 09:05:25;;;;;;;4.68;1.90;;;;;;;;;;6206282;28;20053;-75
2023/12/28 09:08:27;;;;;;;3.17;1.63;;;;;;;;;;6203347;28;20053;-75
2023/12/28 09:11:29;;;;;;;3.08;1.35;;;;;;;;;;6211001;28;20049;-77
2023/12/28 09:14:31;;;;;;;4.25;1.58;;;;;;;;;;6200527;28;20120;-76
2023/12/28 09:17:33;;;;;;;4.30;1.65;;;;;;;;;;6199216;28;20064;-79
2023/12/28 09:20:35;;;;;;;3.55;1.20;;;;;;;;;;6201811;28;20073;-76
2023/12/28 09:23:37;;;;;;;2.30;1.30;;;;;;;;;;6197995;28;20041;-77
2023/12/28 09:26:39;;;;;;;3.87;1.57;;;;;;;;;;6201710;28;20077;-76
2023/12/28 09:29:41;;;;;;;4.07;1.30;;;;;;;;;;6198512;28;20057;-75
2023/12/28 09:32:42;;;;;;;2.92;1.50;;;;;;;;;;6200088;28;20146;-76
2023/12/28 09:35:44;;;;;;;3.42;1.40;;;;;;;;;;6199657;28;20059;-75
2023/12/28 09:38:51;;;;;;;3.15;1.50;;;;;;;;;;6214305;28;20057;-76
2023/12/28 09:42:01;;;;;;;2.67;1.40;;;;;;;;;;6204570;28;20129;-77
2023/12/28 09:45:04;;;;;;;5.63;1.88;;;;;;;;;;6206587;28;20057;-79
2023/12/28 09:48:06;;;;;;;3.40;1.40;;;;;;;;;;6205182;28;20420;-76
2023/12/28 09:51:10;;;;;;;6.20;2.67;;;;;;;;;;6215628;28;20523;-79
2023/12/28 09:54:17;;;;;;;5.22;1.42;;;;;;;;;;6200568;28;20522;-78
2023/12/28 09:57:19;;;;;;;3.50;1.25;;;;;;;;;;6212361;28;20061;-76
2023/12/28 10:00:20;;;;;;;3.42;1.27;;;;;;;;;;6203188;28;20500;-76
2023/12/28 10:03:22;;;;;;;5.70;1.40;;;;;;;;;;6186449;28;20401;-78
2023/12/28 10:06:24;;;;;;;3.08;0.90;;;;;;;;;;6208831;28;20133;-77
2023/12/28 10:09:30;;;;;;;3.22;1.35;;;;;;;;;;6206028;28;20052;-79
2023/12/28 10:12:32;;;;;;;3.33;1.95;;;;;;;;;;6204816;28;20096;-76
2023/12/28 10:15:35;;;;;;;4.47;1.47;;;;;;;;;;6221238;28;20053;-76
2023/12/28 10:18:42;;;;;;;2.05;1.17;;;;;;;;;;6208486;28;20448;-78
2023/12/28 10:21:44;;;;;;;2.55;1.30;;;;;;;;;;6205218;28;20056;-75
2023/12/28 10:24:46;;;;;;;2.33;1.10;;;;;;;;;;6220793;28;20401;-80
2023/12/28 10:27:51;;;;;;;5.53;1.30;;;;;;;;;;6204963;28;20052;-77
2023/12/28 10:30:56;;;;;;;2.85;1.20;;;;;;;;;;6204882;28;20049;-81
2023/12/28 10:34:01;;;;;;;2.95;1.40;;;;;;;;;;6209654;28;20053;-76
2023/12/28 10:37:05;;;;;;;2.00;1.05;;;;;;;;;;6217927;28;20224;-77
2023/12/28 10:40:11;;;;;;;1.52;1.10;;;;;;;;;;6205325;28;21025;-78
2023/12/28 10:43:17;;;;;;;2.72;1.50;;;;;;;;;;6206817;28;20042;-80
2023/12/28 10:46:27;;;;;;;4.13;1.15;;;;;;;;;;6200864;28;20042;-78
2023/12/28 10:49:30;;;;;;;2.72;1.20;;;;;;;;;;6216185;28;20656;-78
2023/12/28 10:52:35;;;;;;;2.30;1.40;;;;;;;;;;6206014;28;20073;-79
2023/12/28 10:55:43;;;;;;;2.08;1.02;;;;;;;;;;6200894;28;20046;-78
2023/12/28 10:58:52;;;;;;;3.28;1.10;;;;;;;;;;6202896;28;20053;-79
2023/12/28 11:01:56;;;;;;;1.80;0.85;;;;;;;;;;6205633;28;20054;-79
2023/12/28 11:05:00;;;;;;;2.90;1.30;;;;;;;;;;6201672;28;20041;-80
2023/12/28 11:08:03;;;;;;;2.33;1.30;;;;;;;;;;6183296;28;20046;-78
2023/12/28 11:11:05;;;;;;;2.53;1.13;;;;;;;;;;6184569;28;20474;-79
2023/12/28 11:14:08;;;;;;;1.20;1.10;;;;;;;;;;6203973;28;20056;-77
2023/12/28 11:17:10;;;;;;;2.38;1.30;;;;;;;;;;6224312;28;20038;-76
2023/12/28 11:20:13;;;;;;;3.10;1.10;;;;;;;;;;6214366;28;20050;-76
2023/12/28 11:23:16;;;;;;;4.82;1.00;;;;;;;;;;6220899;28;20128;-77
2023/12/28 11:26:21;;;;;;;1.47;1.03;;;;;;;;;;6205431;28;20532;-79
2023/12/28 11:29:24;;;;;;;2.22;0.95;;;;;;;;;;6207509;28;20139;-78
2023/12/28 11:32:26;;;;;;;1.85;0.80;;;;;;;;;;6191422;28;20099;-78
2023/12/28 11:35:35;;;;;;;2.70;1.08;;;;;;;;;;6220412;28;20061;-79
2023/12/28 11:38:40;;;;;;;2.85;1.13;;;;;;;;;;6203439;28;20053;-76
2023/12/28 11:41:42;;;;;;;4.18;1.35;;;;;;;;;;6189701;28;20423;-77
2023/12/28 11:44:44;;;;;;;2.17;0.90;;;;;;;;;;6206480;28;20572;-77
2023/12/28 11:47:46;;;;;;;5.97;1.03;;;;;;;;;;6221901;28;20053;-78
2023/12/28 11:50:48;;;;;;;1.77;1.00;;;;;;;;;;6221650;28;20048;-79
2023/12/28 11:53:51;;;;;;;3.58;0.95;;;;;;;;;;6204965;28;20470;-76
2023/12/28 11:56:52;;;;;;;3.40;1.20;;;;;;;;;;6204182;28;20169;-76
2023/12/28 11:59:59;;;;;;;1.88;1.00;;;;;;;;;;6190401;28;20053;-79
2023/12/28 12:03:02;;;;;;;1.23;1.00;;;;;;;;;;6202806;28;20053;-78
2023/12/28 12:06:04;;;;;;;2.20;1.42;;;;;;;;;;6195842;28;20046;-76
2023/12/28 12:09:06;;;;;;;3.15;1.30;;;;;;;;;;6209402;28;20128;-76
2023/12/28 12:12:08;;;;;;;2.30;1.30;;;;;;;;;;6199961;28;20519;-79
2023/12/28 12:15:10;;;;;;;3.00;1.23;;;;;;;;;;6192292;28;20045;-77
2023/12/28 12:18:12;;;;;;;4.72;1.40;;;;;;;;;;6188436;28;20052;-78
2023/12/28 12:21:14;;;;;;;2.08;1.17;;;;;;;;;;6207647;28;20765;-77
2023/12/28 12:24:19;;;;;;;4.90;1.65;;;;;;;;;;6208007;28;20187;-80
2023/12/28 12:27:21;;;;;;;1.80;1.13;;;;;;;;;;6210705;28;20049;-77
2023/12/28 12:30:23;;;;;;;3.58;0.98;;;;;;;;;;6249258;23;20069;-88
2023/12/28 12:33:26;;;;;;;1.23;0.63;;;;;;;;;;6210230;28;20054;-87
2023/12/28 12:36:28;;;;;;;4.65;1.02;;;;;;;;;;6234074;28;20042;-88
2023/12/28 12:39:31;;;;;;;1.58;1.00;;;;;;;;;;6229577;28;20128;-87
2023/12/28 12:42:33;;;;;;;4.63;1.33;;;;;;;;;;6205581;28;20050;-87
2023/12/28 12:45:39;;;;;;;5.07;1.13;;;;;;;;;;6200756;28;20046;-87
2023/12/28 12:48:41;;;;;;;2.40;1.00;;;;;;;;;;6206728;28;20064;-87
2023/12/28 12:51:45;;;;;;;3.57;1.13;;;;;;;;;;6217287;28;20052;-87
2023/12/28 12:54:53;;;;;;;2.50;0.90;;;;;;;;;;6205508;28;20457;-88
2023/12/28 12:57:56;;;;;;;2.95;0.80;;;;;;;;;;6198416;28;20074;-88
2023/12/28 13:00:57;;;;;;;1.55;0.88;;;;;;;;;;6211219;28;20138;-87
2023/12/28 13:04:00;;;;;;;3.50;0.93;;;;;;;;;;6181766;28;20518;-88
2023/12/28 13:07:02;;;;;;;2.00;1.00;;;;;;;;;;6205476;28;20050;-86
2023/12/28 13:10:05;;;;;;;3.45;0.85;;;;;;;;;;6182343;28;20421;-87
2023/12/28 13:13:08;;;;;;;1.23;0.90;;;;;;;;;;6200076;28;20050;-87
2023/12/28 13:16:10;;;;;;;4.05;1.17;;;;;;;;;;6184903;28;20416;-87
2023/12/28 13:19:12;;;;;;;2.83;1.08;;;;;;;;;;6206030;28;20385;-87
2023/12/28 13:22:14;;;;;;;3.75;1.02;;;;;;;;;;6206922;28;20050;-87
2023/12/28 13:25:16;;;;;;;2.55;0.93;;;;;;;;;;6188319;28;20415;-87
2023/12/28 13:28:20;;;;;;;1.40;0.75;;;;;;;;;;6201205;28;20053;-87
2023/12/28 13:31:22;;;;;;;5.50;1.30;;;;;;;;;;6198992;28;20047;-86
2023/12/28 13:34:24;;;;;;;4.13;0.90;;;;;;;;;;6207702;28;20054;-87
2023/12/28 13:37:26;;;;;;;3.10;1.00;;;;;;;;;;6202849;28;20050;-87
2023/12/28 13:40:28;;;;;;;1.27;0.70;;;;;;;;;;6188570;28;20141;-87
2023/12/28 13:43:30;;;;;;;3.25;0.80;;;;;;;;;;6195510;28;20045;-87
2023/12/28 13:46:33;;;;;;;4.85;1.15;;;;;;;;;;6204644;28;20120;-87
2023/12/28 13:49:35;;;;;;;2.50;1.02;;;;;;;;;;6206893;28;20046;-87
2023/12/28 13:52:37;;;;;;;3.00;0.90;;;;;;;;;;6205067;28;20128;-87
2023/12/28 13:55:38;;;;;;;2.45;1.17;;;;;;;;;;6200865;28;20049;-87
2023/12/28 13:58:40;;;;;;;2.88;0.82;;;;;;;;;;6188147;28;20053;-87
2023/12/28 14:01:42;;;;;;;1.38;1.05;;;;;;;;;;6196514;28;20088;-87
2023/12/28 14:04:45;;;;;;;3.65;1.05;;;;;;;;;;6202675;28;20046;-87
2023/12/28 14:07:47;;;;;;;2.60;1.00;;;;;;;;;;6189696;28;20052;-87
2023/12/28 14:10:49;;;;;;;2.20;0.90;;;;;;;;;;6182275;28;20476;-88
2023/12/28 14:13:51;;;;;;;4.88;1.17;;;;;;;;;;6221877;28;20041;-87
2023/12/28 14:16:53;;;;;;;1.85;0.80;;;;;;;;;;6227968;28;20050;-87
2023/12/28 14:19:54;;;;;;;5.30;1.20;;;;;;;;;;6206331;28;20131;-87
2023/12/28 14:22:57;;;;;;;1.38;0.80;;;;;;;;;;6210172;28;20046;-86
2023/12/28 14:25:59;;;;;;;3.35;1.08;;;;;;;;;;6192034;28;20046;-86
2023/12/28 14:29:05;;;;;;;3.78;1.10;;;;;;;;;;6193189;28;20077;-86
2023/12/28 14:32:08;;;;;;;3.85;1.20;;;;;;;;;;6182432;28;20061;-86
2023/12/28 14:35:11;;;;;;;3.25;0.90;;;;;;;;;;6203842;28;20049;-86
2023/12/28 14:38:13;;;;;;;4.68;1.67;;;;;;;;;;6209084;28;20057;-86
2023/12/28 14:41:14;;;;;;;2.95;0.90;;;;;;;;;;6204220;28;20049;-87
2023/12/28 14:44:17;;;;;;;3.58;0.90;;;;;;;;;;6200886;28;20046;-87
2023/12/28 14:47:19;;;;;;;4.53;0.90;;;;;;;;;;6198368;28;20053;-87
2023/12/28 14:50:20;;;;;;;5.97;0.80;;;;;;;;;;6204819;28;20057;-86
2023/12/28 14:53:25;;;;;;;3.90;0.98;;;;;;;;;;6204811;28;20054;-87
2023/12/28 14:56:27;;;;;;;3.13;0.80;;;;;;;;;;6187732;28;20053;-88
2023/12/28 14:59:44;;;;;;;1.80;0.80;;;;;;;;;;6180243;28;20045;-87
2023/12/28 15:02:46;;;;;;;3.47;0.80;;;;;;;;;;6201432;28;20048;-86
2023/12/28 15:05:48;;;;;;;1.90;0.95;;;;;;;;;;6206735;28;20565;-87
2023/12/28 15:08:52;;;;;;;3.70;0.77;;;;;;;;;;6205742;28;20069;-87
2023/12/28 15:11:55;;;;;;;1.33;0.80;;;;;;;;;;6187046;28;20129;-87
2023/12/28 15:14:57;;;;;;;5.43;0.82;;;;;;;;;;6208276;28;20049;-87
2023/12/28 15:18:00;;;;;;;2.55;0.98;;;;;;;;;;6200279;28;20050;-87
2023/12/28 15:21:03;;;;;;;1.35;0.80;;;;;;;;;;6184426;28;20092;-87
2023/12/28 15:24:06;;;;;;;3.38;1.02;;;;;;;;;;6189405;28;20049;-87
2023/12/28 15:27:08;;;;;;;3.55;1.15;;;;;;;;;;6197508;28;20046;-86
2023/12/28 15:30:10;;;;;;;4.40;0.90;;;;;;;;;;6191529;28;20073;-87
2023/12/28 15:33:12;;;;;;;3.13;1.25;;;;;;;;;;6194391;28;20050;-85
2023/12/28 15:36:14;;;;;;;2.20;0.95;;;;;;;;;;6198092;28;20050;-87
2023/12/28 15:39:16;;;;;;;3.33;0.93;;;;;;;;;;6201161;28;20675;-85
2023/12/28 15:42:18;;;;;;;5.57;1.20;;;;;;;;;;6185661;28;20463;-87
2023/12/28 15:45:20;;;;;;;4.10;1.10;;;;;;;;;;6183496;28;20057;-87
2023/12/28 15:48:26;;;;;;;1.80;0.93;;;;;;;;;;6203127;28;20088;-89
2023/12/28 15:51:28;;;;;;;3.17;1.10;;;;;;;;;;6237245;28;20094;-89
2023/12/28 15:54:31;;;;;;;1.87;0.90;;;;;;;;;;6225030;28;20037;-89
2023/12/28 15:57:32;;;;;;;2.00;1.10;;;;;;;;;;6211805;28;20119;-88
2023/12/28 16:00:35;;;;;;;3.45;1.30;;;;;;;;;;6174439;28;20060;-88
2023/12/28 16:03:37;;;;;;;1.93;0.93;;;;;;;;;;6207957;28;20056;-87
2023/12/28 16:06:39;;;;;;;2.33;1.05;;;;;;;;;;6193107;28;20049;-88
2023/12/28 16:09:41;;;;;;;2.03;1.20;;;;;;;;;;6192901;28;20050;-86
2023/12/28 16:12:43;;;;;;;1.15;0.88;;;;;;;;;;6200038;28;20101;-88
2023/12/28 16:15:45;;;;;;;1.38;0.75;;;;;;;;;;6200079;28;20547;-86
2023/12/28 16:18:48;;;;;;;1.42;1.00;;;;;;;;;;6187045;28;20057;-89
2023/12/28 16:21:51;;;;;;;2.15;1.20;;;;;;;;;;6203332;28;20045;-86
2023/12/28 16:24:53;;;;;;;2.83;1.10;;;;;;;;;;6206111;28;20527;-89
2023/12/28 16:27:55;;;;;;;1.58;1.10;;;;;;;;;;6208637;28;20046;-88
2023/12/28 16:30:57;;;;;;;5.47;1.42;;;;;;;;;;6194669;28;20046;-88
2023/12/28 16:34:00;;;;;;;2.17;1.17;;;;;;;;;;6191583;28;20046;-87
2023/12/28 16:37:07;;;;;;;2.53;1.10;;;;;;;;;;6208856;28;20050;-89
2023/12/28 16:40:09;;;;;;;4.00;1.08;;;;;;;;;;6206417;28;20407;-86
2023/12/28 16:43:12;;;;;;;3.45;1.35;;;;;;;;;;6205130;28;20130;-88
2023/12/28 16:46:17;;;;;;;3.47;1.13;;;;;;;;;;6203763;28;20052;-88
2023/12/28 16:49:19;;;;;;;2.08;1.17;;;;;;;;;;6218072;28;20049;-88
2023/12/28 16:52:21;;;;;;;2.00;1.20;;;;;;;;;;6200517;28;20049;-88
2023/12/28 16:55:25;;;;;;;3.65;1.23;;;;;;;;;;6209250;28;20045;-88
2023/12/28 16:58:27;;;;;;;4.03;1.27;;;;;;;;;;6186695;28;20195;-89
2023/12/28 17:01:33;;;;;;;29.20;8.52;;;;;;;;;;6203470;28;20077;-89
2023/12/28 17:04:36;;;;;;;5.35;2.50;;;;;;;;;;6185754;28;20052;-87
2023/12/28 17:07:38;;;;;;;2.23;1.30;;;;;;;;;;6209147;28;20053;-88
2023/12/28 17:10:40;;;;;;;3.53;1.40;;;;;;;;;;6199755;28;20042;-85
2023/12/28 17:13:46;;;;;;;4.55;1.10;;;;;;;;;;6207554;28;20053;-87
2023/12/28 17:16:49;;;;;;;4.20;1.35;;;;;;;;;;6175994;28;20060;-88
2023/12/28 17:19:52;;;;;;;2.88;1.13;;;;;;;;;;6190383;28;20050;-86
2023/12/28 17:23:01;;;;;;;3.55;1.30;;;;;;;;;;6205266;28;20085;-88
2023/12/28 17:26:12;;;;;;;4.03;1.48;;;;;;;;;;6188233;28;20356;-86
2023/12/28 17:29:15;;;;;;;2.75;1.40;;;;;;;;;;6218067;28;20034;-88
2023/12/28 17:32:18;;;;;;;5.85;1.83;;;;;;;;;;6212558;28;20390;-85
2023/12/28 17:35:20;;;;;;;3.42;1.80;;;;;;;;;;6191304;28;20128;-88
2023/12/28 17:38:25;;;;;;;5.35;2.50;;;;;;;;;;6190443;28;20092;-88
2023/12/28 17:41:32;;;;;;;2.08;1.33;;;;;;;;;;6188165;28;20077;-86
2023/12/28 17:44:42;;;;;;;3.20;1.10;;;;;;;;;;6195315;28;20539;-88
2023/12/28 17:48:00;;;;;;;1.77;1.33;;;;;;;;;;6196951;28;20050;-89
2023/12/28 17:51:04;;;;;;;3.00;1.17;;;;;;;;;;6196170;28;20038;-88
2023/12/28 17:54:08;;;;;;;1.38;0.98;;;;;;;;;;6179823;28;20136;-89
2023/12/28 17:57:12;;;;;;;2.67;1.40;;;;;;;;;;6182132;28;20046;-88
2023/12/28 18:00:15;;;;;;;2.78;1.50;;;;;;;;;;6200396;28;20400;-85
2023/12/28 18:03:17;;;;;;;2.20;1.52;;;;;;;;;;6204532;28;20501;-87
2023/12/28 18:06:19;;;;;;;2.45;1.38;;;;;;;;;;6205892;28;20046;-85
2023/12/28 18:09:21;;;;;;;3.83;1.67;;;;;;;;;;6210123;28;20049;-86
2023/12/28 18:12:24;;;;;;;3.47;1.60;;;;;;;;;;6186964;28;20049;-85
2023/12/28 18:15:26;;;;;;;2.83;1.70;;;;;;;;;;6208163;28;20547;-85